Decoded Metar for PAQH ( in ) (IATA:) | Meteo·Mobile Aviation Weather
aviador You're here:

PAQH Decoded Metar

in
Report Time2019-03-23 07:56:00
UTC Time2019-03-23 08:46:16
Flight Rules vfr VFR
Wind040° at 09 kt
W.Decomp.*RWY 12: 1.6 kt HW 8.9 kt LCW
W.Rank040° ranks 27
Current wind is above 040° avg. (7.4)
Visibility9999 m
Phenomena:N/A
Clouds:Broken 033 Hf
Overcast 042 Hf
Expected CloudBase > 800 ft AGL from Temp-Dew spread
Ceiling3,300 ft
Temp03°C
Dew Point01°C (87% RH)
AAT-2.1°C
QNH993 hPa
Raw Report
PAQH 230756Z AUTO 04009KT 10SM BKN033 OVC042 03/01 A2931 RMK AO2
SLP926 T00330006=

Extra information for PAQH:More info

Social comments